Time;durP1;ratioP1;P1;durP2;ratioP2;P2;SDS_P1;SDS_P2;PMS_P1;PMS_P2;Temp;Humidity;BMP_temperature;BMP_pressure;BME280_temperature;BME280_humidity;BME280_pressure;Samples;Min_cycle;Max_cycle;Signal;HPM_P1;HPM_P2
2023/10/17 00:01:11;;;;;;;26.83;13.27;;;5.90;99.90;;;;;;5052376;28;20546;-60
2023/10/17 00:03:37;;;;;;;27.33;14.20;;;5.80;99.90;;;;;;5051289;28;20028;-59
2023/10/17 00:06:06;;;;;;;31.50;14.15;;;5.90;99.90;;;;;;5055402;28;20458;-59
2023/10/17 00:08:32;;;;;;;27.15;13.70;;;5.80;99.90;;;;;;5049980;28;20020;-58
2023/10/17 00:11:07;;;;;;;29.40;13.48;;;5.80;99.90;;;;;;5057700;28;20370;-57
2023/10/17 00:13:44;;;;;;;24.10;13.02;;;5.80;99.90;;;;;;5057863;28;20017;-56
2023/10/17 00:16:14;;;;;;;27.00;12.48;;;5.80;99.90;;;;;;5054215;28;20033;-55
2023/10/17 00:18:40;;;;;;;27.30;13.10;;;5.70;99.90;;;;;;5050649;28;20207;-57
2023/10/17 00:21:16;;;;;;;21.40;12.00;;;5.70;99.90;;;;;;5049506;28;20763;-55
2023/10/17 00:23:42;;;;;;;25.00;12.93;;;5.70;99.90;;;;;;5057596;28;20025;-58
2023/10/17 00:26:12;;;;;;;23.30;11.32;;;5.70;99.90;;;;;;5059524;28;20024;-57
2023/10/17 00:28:38;;;;;;;22.20;10.35;;;5.70;99.90;;;;;;5060790;28;20021;-56
2023/10/17 00:31:04;;;;;;;21.10;11.77;;;5.80;99.90;;;;;;5060151;28;20032;-56
2023/10/17 00:33:32;;;;;;;24.45;11.07;;;5.80;99.90;;;;;;5061928;28;20421;-55
2023/10/17 00:35:58;;;;;;;22.95;12.20;;;5.70;99.90;;;;;;5060083;28;20031;-55
2023/10/17 00:38:29;;;;;;;21.25;10.80;;;5.60;99.90;;;;;;5060887;28;20025;-57
2023/10/17 00:40:56;;;;;;;26.38;12.15;;;5.50;99.90;;;;;;5055218;28;20471;-59
2023/10/17 00:43:28;;;;;;;29.25;12.18;;;5.50;99.90;;;;;;5058874;28;20021;-57
2023/10/17 00:45:53;;;;;;;22.08;11.68;;;5.40;99.90;;;;;;5059215;28;20067;-57
2023/10/17 00:48:22;;;;;;;24.30;12.98;;;5.30;99.90;;;;;;5058100;28;20025;-55
2023/10/17 00:50:50;;;;;;;20.65;10.38;;;5.30;99.90;;;;;;5059096;28;20032;-60
2023/10/17 00:53:16;;;;;;;20.90;11.85;;;5.20;99.90;;;;;;5059506;28;20104;-59
2023/10/17 00:55:51;;;;;;;23.95;10.70;;;5.10;99.90;;;;;;5059174;28;20571;-57
2023/10/17 00:58:21;;;;;;;21.88;10.65;;;5.10;99.90;;;;;;5061581;28;20013;-55
2023/10/17 01:01:32;;;;;;;28.55;10.77;;;5.10;99.90;;;;;;5062570;28;20024;-57
2023/10/17 01:03:41;;;;;;;22.55;10.55;;;5.10;99.90;;;;;;5041428;28;20060;-58
2023/10/17 01:06:23;;;;;;;25.30;11.45;;;5.20;99.90;;;;;;5047273;28;20050;-56
2023/10/17 01:08:49;;;;;;;24.88;11.05;;;5.40;99.90;;;;;;5044055;28;20031;-57
2023/10/17 01:11:27;;;;;;;24.08;11.30;;;5.40;99.90;;;;;;5057918;28;20027;-55
2023/10/17 01:13:54;;;;;;;22.55;11.35;;;5.30;99.90;;;;;;5048556;28;20519;-54
2023/10/17 01:16:20;;;;;;;21.48;11.32;;;5.40;99.90;;;;;;5048377;28;20060;-59
2023/10/17 01:18:46;;;;;;;17.23;9.70;;;5.40;99.90;;;;;;5051199;28;20111;-55
2023/10/17 01:21:19;;;;;;;21.60;10.18;;;5.40;99.90;;;;;;5051921;28;20108;-55
2023/10/17 01:23:46;;;;;;;24.10;10.25;;;5.40;99.90;;;;;;5058453;28;20052;-54
2023/10/17 01:26:26;;;;;;;26.35;9.85;;;5.50;99.90;;;;;;5061154;28;20066;-56
2023/10/17 01:28:53;;;;;;;19.10;10.82;;;5.30;99.90;;;;;;5049934;28;20020;-54
2023/10/17 01:31:25;;;;;;;27.02;12.20;;;5.30;99.90;;;;;;5059717;28;20107;-54
2023/10/17 01:33:54;;;;;;;18.33;10.13;;;5.30;99.90;;;;;;5057959;28;20129;-50
2023/10/17 01:36:20;;;;;;;21.83;11.10;;;5.30;99.90;;;;;;5055843;28;20039;-55
2023/10/17 01:38:49;;;;;;;20.35;11.10;;;5.30;99.90;;;;;;5061877;28;20013;-57
2023/10/17 01:41:20;;;;;;;20.30;10.60;;;5.30;99.90;;;;;;5058743;28;20471;-57
2023/10/17 01:43:46;;;;;;;18.20;10.80;;;5.20;99.90;;;;;;5056843;28;20070;-55
2023/10/17 01:46:21;;;;;;;18.90;10.65;;;5.30;99.90;;;;;;5055379;28;20416;-57
2023/10/17 01:48:54;;;;;;;23.90;10.75;;;5.40;99.90;;;;;;5062198;28;20082;-56
2023/10/17 01:51:20;;;;;;;23.63;11.80;;;5.50;99.90;;;;;;5055685;28;20021;-58
2023/10/17 01:53:50;;;;;;;22.35;10.35;;;5.50;99.90;;;;;;5060685;28;20474;-51
2023/10/17 01:56:18;;;;;;;25.73;11.90;;;5.40;99.90;;;;;;5057058;28;20028;-52
2023/10/17 01:58:48;;;;;;;20.02;11.32;;;5.40;99.90;;;;;;5061969;28;20031;-59
2023/10/17 02:01:29;;;;;;;21.00;10.88;;;5.50;99.90;;;;;;5055643;28;20025;-57
2023/10/17 02:04:03;;;;;;;19.50;10.05;;;5.60;99.90;;;;;;5049981;28;20022;-55
2023/10/17 02:06:30;;;;;;;17.73;10.05;;;5.70;99.90;;;;;;5047081;28;20023;-58
2023/10/17 02:08:58;;;;;;;24.60;10.63;;;5.70;99.90;;;;;;5047571;28;20025;-58
2023/10/17 02:11:24;;;;;;;19.35;10.00;;;5.80;99.90;;;;;;5052499;28;20040;-60
2023/10/17 02:13:57;;;;;;;20.95;10.52;;;5.80;99.90;;;;;;5051309;28;20519;-57
2023/10/17 02:16:32;;;;;;;18.45;10.10;;;5.80;99.90;;;;;;5051611;28;20036;-55
2023/10/17 02:19:03;;;;;;;24.20;10.52;;;5.80;99.90;;;;;;5050818;28;20028;-55
2023/10/17 02:21:29;;;;;;;18.75;9.00;;;5.80;99.90;;;;;;5054625;28;20025;-60
2023/10/17 02:23:54;;;;;;;17.60;9.43;;;5.80;99.90;;;;;;5052955;28;20025;-56
2023/10/17 02:26:21;;;;;;;18.65;9.75;;;5.90;99.90;;;;;;5053805;28;20649;-57
2023/10/17 02:28:48;;;;;;;21.30;10.05;;;5.90;99.90;;;;;;5053857;28;20032;-57
2023/10/17 02:31:14;;;;;;;20.05;9.43;;;5.90;99.90;;;;;;5052277;28;20406;-58
2023/10/17 02:33:43;;;;;;;21.92;9.88;;;5.90;99.90;;;;;;5059874;28;20344;-56
2023/10/17 02:36:12;;;;;;;15.75;8.88;;;5.90;99.90;;;;;;5063326;28;20050;-59
2023/10/17 02:38:41;;;;;;;14.95;8.45;;;5.90;99.90;;;;;;5062635;28;20386;-60
2023/10/17 02:41:18;;;;;;;14.90;9.25;;;5.80;99.90;;;;;;5062954;28;20374;-59
2023/10/17 02:43:47;;;;;;;15.73;8.70;;;5.80;99.90;;;;;;5061990;28;20027;-59
2023/10/17 02:46:14;;;;;;;21.63;9.50;;;5.80;99.90;;;;;;5058471;28;20402;-60
2023/10/17 02:48:42;;;;;;;20.42;9.95;;;5.80;99.90;;;;;;5055924;28;20028;-58
2023/10/17 02:53:53;;;;;;;15.63;8.68;;;5.80;99.90;;;;;;5052327;28;20092;-59
2023/10/17 02:56:22;;;;;;;19.63;11.00;;;5.80;99.90;;;;;;5056350;28;20434;-58
2023/10/17 02:59:04;;;;;;;19.48;9.55;;;5.70;99.90;;;;;;5059612;28;20037;-57
2023/10/17 03:01:30;;;;;;;22.85;9.40;;;5.70;99.90;;;;;;5054630;28;20025;-54
2023/10/17 03:03:56;;;;;;;20.58;9.57;;;5.70;99.90;;;;;;5058511;28;20104;-56
2023/10/17 03:06:22;;;;;;;22.13;9.82;;;5.60;99.90;;;;;;5061975;28;20127;-54
2023/10/17 03:08:51;;;;;;;25.77;10.32;;;5.60;99.90;;;;;;5063121;28;20017;-53
2023/10/17 03:11:35;;;;;;;21.45;10.00;;;5.60;99.90;;;;;;5061214;28;20024;-53
2023/10/17 03:14:10;;;;;;;18.70;9.63;;;5.60;99.90;;;;;;5056449;28;20127;-54
2023/10/17 03:16:40;;;;;;;23.77;10.38;;;5.60;99.90;;;;;;5058453;28;20382;-56
2023/10/17 03:19:06;;;;;;;19.58;10.20;;;5.50;99.90;;;;;;5053883;28;20044;-55
2023/10/17 03:21:34;;;;;;;20.25;11.23;;;5.60;99.90;;;;;;5058334;28;20078;-56
2023/10/17 03:24:04;;;;;;;17.65;9.88;;;5.50;99.90;;;;;;5064436;28;20041;-57
2023/10/17 03:26:39;;;;;;;24.55;11.45;;;5.60;99.90;;;;;;5063782;28;20697;-58
2023/10/17 03:29:13;;;;;;;;;;;5.50;99.90;;;;;;5061305;28;20020;-57
2023/10/17 03:31:41;;;;;;;18.25;9.18;;;5.60;99.90;;;;;;5058605;28;19920;-59
2023/10/17 03:34:07;;;;;;;18.55;10.50;;;5.60;99.90;;;;;;5063523;28;20036;-57
2023/10/17 03:36:41;;;;;;;21.88;9.73;;;5.60;99.90;;;;;;5054875;28;20039;-58
2023/10/17 03:41:58;;;;;;;29.27;10.75;;;5.60;99.90;;;;;;5063259;28;20036;-57
2023/10/17 03:44:30;;;;;;;21.90;10.75;;;5.70;99.90;;;;;;5060843;28;20435;-59
2023/10/17 03:46:59;;;;;;;22.13;10.20;;;5.70;99.90;;;;;;5067610;28;20024;-60
2023/10/17 03:49:36;;;;;;;23.40;10.27;;;5.70;99.90;;;;;;5057738;28;20056;-59
2023/10/17 03:52:04;;;;;;;16.92;9.23;;;5.70;99.90;;;;;;5055523;28;20047;-57
2023/10/17 03:54:29;;;;;;;18.52;9.80;;;5.70;99.90;;;;;;5057209;28;20482;-59
2023/10/17 03:57:02;;;;;;;20.38;10.98;;;5.60;99.90;;;;;;5055168;28;20048;-55
2023/10/17 03:59:41;;;;;;;25.45;10.48;;;5.60;99.90;;;;;;5061531;28;20032;-60
2023/10/17 04:02:18;;;;;;;18.02;9.95;;;5.60;99.90;;;;;;5059291;28;20545;-58
2023/10/17 04:04:53;;;;;;;17.63;9.82;;;5.60;99.90;;;;;;5058903;28;20016;-56
2023/10/17 04:07:29;;;;;;;16.70;10.13;;;5.60;99.90;;;;;;5057606;28;20115;-56
2023/10/17 04:12:38;;;;;;;20.42;9.48;;;5.60;99.90;;;;;;5058125;28;20028;-57
2023/10/17 04:15:07;;;;;;;18.88;9.38;;;5.60;99.90;;;;;;5059051;28;20431;-56
2023/10/17 04:17:36;;;;;;;16.67;8.88;;;5.70;99.90;;;;;;5058710;28;20027;-60
2023/10/17 04:20:16;;;;;;;19.27;10.40;;;5.70;99.90;;;;;;5057386;28;20041;-54
2023/10/17 04:22:45;;;;;;;20.10;9.52;;;5.80;99.90;;;;;;5054669;28;20025;-57
2023/10/17 04:25:31;;;;;;;16.75;9.82;;;5.80;99.90;;;;;;5068479;28;20025;-59
2023/10/17 04:27:59;;;;;;;19.40;9.23;;;5.80;99.90;;;;;;5053802;28;20033;-59
2023/10/17 04:30:46;;;;;;;17.50;8.48;;;5.90;99.90;;;;;;5059408;28;20490;-57
2023/10/17 04:33:19;;;;;;;17.45;9.35;;;6.00;99.90;;;;;;5060998;28;20096;-58
2023/10/17 04:35:53;;;;;;;13.75;8.48;;;6.00;99.90;;;;;;5062038;28;20352;-58
2023/10/17 04:38:38;;;;;;;19.20;8.98;;;6.00;99.90;;;;;;5052421;28;20342;-57
2023/10/17 04:44:02;;;;;;;13.48;7.90;;;5.90;99.90;;;;;;5055376;28;20537;-57
2023/10/17 04:46:33;;;;;;;16.02;8.38;;;5.80;99.90;;;;;;5059490;28;20031;-57
2023/10/17 04:49:17;;;;;;;14.45;7.38;;;5.80;99.90;;;;;;5056019;28;20095;-57
2023/10/17 04:51:43;;;;;;;14.32;7.57;;;5.80;99.90;;;;;;5057343;28;20667;-55
2023/10/17 04:54:22;;;;;;;16.40;8.25;;;5.90;99.90;;;;;;5060291;28;20103;-56
2023/10/17 04:57:00;;;;;;;15.68;8.98;;;5.90;99.90;;;;;;5055751;28;20031;-59
2023/10/17 06:18:52;;;;;;;12.52;6.70;;;6.00;99.90;;;;;;5058702;28;20958;-59
2023/10/17 06:21:19;;;;;;;16.08;8.43;;;6.00;99.90;;;;;;5055058;28;20359;-59
2023/10/17 06:34:16;;;;;;;25.25;10.00;;;6.10;99.90;;;;;;5060109;28;20032;-60
2023/10/17 06:36:43;;;;;;;21.27;10.73;;;6.10;99.90;;;;;;5062371;28;20020;-61
2023/10/17 06:39:19;;;;;;;16.92;10.27;;;6.10;99.90;;;;;;5061167;28;20082;-60
2023/10/17 06:41:46;;;;;;;16.58;9.77;;;6.20;99.90;;;;;;5064618;28;20118;-61
2023/10/17 06:44:21;;;;;;;23.70;11.55;;;6.30;99.90;;;;;;5060939;28;20028;-61
2023/10/17 06:46:55;;;;;;;18.27;8.50;;;6.30;99.90;;;;;;5056302;28;20374;-62
2023/10/17 06:54:45;;;;;;;18.17;8.95;;;6.30;99.90;;;;;;5064554;28;20024;-62
2023/10/17 06:57:20;;;;;;;15.70;7.93;;;6.40;99.90;;;;;;5059839;28;20501;-60
2023/10/17 06:59:50;;;;;;;16.92;8.85;;;6.40;99.90;;;;;;5066383;28;20028;-62
2023/10/17 07:02:18;;;;;;;19.58;9.07;;;6.40;99.90;;;;;;5059259;28;20020;-62
2023/10/17 07:04:49;;;;;;;22.42;8.55;;;6.40;99.90;;;;;;5058154;28;20021;-61
2023/10/17 07:07:16;;;;;;;19.58;9.05;;;6.50;99.90;;;;;;5053763;28;20032;-61
2023/10/17 07:09:42;;;;;;;24.70;9.68;;;6.50;99.90;;;;;;5058420;28;20025;-60
2023/10/17 07:12:14;;;;;;;19.83;9.25;;;6.50;99.90;;;;;;5051923;28;20021;-60
2023/10/17 07:14:48;;;;;;;20.20;9.02;;;6.50;99.90;;;;;;5055796;28;20025;-61
2023/10/17 07:17:27;;;;;;;17.52;8.77;;;6.60;99.90;;;;;;5058279;28;20017;-61
2023/10/17 07:20:12;;;;;;;24.67;10.07;;;6.70;99.90;;;;;;5064863;28;20025;-62
2023/10/17 07:22:40;;;;;;;18.05;8.65;;;6.80;99.90;;;;;;5061844;28;20029;-60
2023/10/17 07:25:16;;;;;;;17.90;9.52;;;6.80;99.90;;;;;;5066352;28;20069;-60
2023/10/17 07:27:44;;;;;;;16.33;9.15;;;6.90;99.90;;;;;;5059000;28;20071;-58
2023/10/17 07:30:13;;;;;;;17.67;8.73;;;7.00;99.90;;;;;;5055164;28;20042;-61
2023/10/17 07:32:45;;;;;;;24.10;9.20;;;7.00;99.90;;;;;;5054581;28;20392;-60
2023/10/17 07:35:15;;;;;;;19.20;9.48;;;7.10;99.90;;;;;;5058177;28;20021;-61
2023/10/17 07:37:54;;;;;;;17.45;9.80;;;7.10;99.90;;;;;;5063935;28;20050;-61
2023/10/17 07:40:28;;;;;;;16.63;9.13;;;7.20;99.90;;;;;;5057881;28;20576;-61
2023/10/17 07:42:57;;;;;;;18.63;8.73;;;7.30;99.90;;;;;;5062221;28;20029;-60
2023/10/17 07:45:23;;;;;;;19.02;9.48;;;7.30;99.90;;;;;;5059822;28;20029;-62
2023/10/17 07:47:51;;;;;;;22.00;9.45;;;7.40;99.90;;;;;;5056767;28;20020;-60
2023/10/17 07:50:18;;;;;;;20.55;8.93;;;7.50;99.90;;;;;;5065642;28;20016;-61
2023/10/17 07:52:44;;;;;;;19.17;9.73;;;7.50;99.90;;;;;;5068109;28;20029;-61
2023/10/17 07:55:22;;;;;;;14.57;8.73;;;7.60;99.90;;;;;;5061523;28;20032;-62
2023/10/17 07:57:57;;;;;;;16.05;8.98;;;7.80;99.90;;;;;;5062614;28;20056;-59
2023/10/17 08:00:56;;;;;;;20.05;7.85;;;7.90;99.90;;;;;;5056061;28;20017;-61
2023/10/17 08:03:14;;;;;;;14.73;7.75;;;7.90;99.90;;;;;;5060836;28;20047;-60
2023/10/17 08:08:33;;;;;;;12.85;6.18;;;8.00;99.90;;;;;;5049943;28;20052;-58
2023/10/17 08:10:59;;;;;;;8.55;5.80;;;8.10;99.90;;;;;;5050726;28;20021;-59
2023/10/17 08:13:28;;;;;;;13.45;6.32;;;8.20;99.90;;;;;;5049637;28;20669;-61
2023/10/17 08:16:04;;;;;;;8.95;5.32;;;8.30;99.90;;;;;;5053925;28;20390;-62
2023/10/17 08:18:39;;;;;;;23.23;5.88;;;8.40;99.90;;;;;;5051119;28;20445;-60
2023/10/17 08:23:52;;;;;;;13.48;5.57;;;8.60;99.90;;;;;;5052221;28;20094;-61
2023/10/17 08:26:18;;;;;;;12.20;4.30;;;8.60;99.90;;;;;;5052765;28;20466;-62
2023/10/17 08:31:36;;;;;;;14.20;4.70;;;8.70;99.90;;;;;;5051728;28;20032;-61
2023/10/17 08:36:41;;;;;;;8.05;3.42;;;8.90;99.90;;;;;;5065347;28;20501;-61
2023/10/17 08:39:26;;;;;;;8.65;3.47;;;9.00;99.90;;;;;;5063874;28;20112;-62
2023/10/17 08:42:05;;;;;;;10.38;3.58;;;9.00;99.90;;;;;;5058207;28;20021;-59
2023/10/17 08:44:33;;;;;;;11.93;3.47;;;9.10;99.90;;;;;;5056767;28;20016;-61
2023/10/17 08:46:59;;;;;;;10.48;3.67;;;9.10;99.90;;;;;;5062070;28;20017;-59
2023/10/17 08:49:27;;;;;;;5.55;3.20;;;9.20;99.90;;;;;;5059637;28;20024;-60
2023/10/17 08:51:57;;;;;;;6.78;3.42;;;9.30;99.90;;;;;;5058147;28;20372;-60
2023/10/17 08:54:25;;;;;;;8.15;3.60;;;9.30;99.90;;;;;;5054937;28;20032;-59
2023/10/17 08:56:50;;;;;;;7.82;3.28;;;9.40;99.90;;;;;;5060750;28;20021;-61
2023/10/17 08:59:16;;;;;;;5.78;3.42;;;9.50;99.90;;;;;;5060720;28;20083;-59
2023/10/17 09:02:14;;;;;;;6.45;2.65;;;9.50;99.90;;;;;;5061298;28;20491;-60
2023/10/17 09:04:42;;;;;;;6.38;3.05;;;9.70;99.90;;;;;;5051000;28;20029;-62
2023/10/17 09:07:08;;;;;;;10.23;3.20;;;9.70;99.90;;;;;;5054469;28;20024;-60
2023/10/17 09:09:34;;;;;;;5.72;2.75;;;9.70;99.90;;;;;;5053135;28;20020;-60
2023/10/17 09:12:01;;;;;;;11.88;4.50;;;9.80;99.90;;;;;;5058876;28;20584;-61
2023/10/17 09:14:29;;;;;;;13.25;2.67;;;9.90;99.90;;;;;;5062881;28;20033;-61
2023/10/17 09:17:10;;;;;;;4.35;2.75;;;9.90;99.90;;;;;;5060878;28;20021;-63
2023/10/17 09:19:46;;;;;;;8.38;3.25;;;10.00;99.90;;;;;;5055608;28;20024;-62
2023/10/17 09:22:15;;;;;;;5.47;2.63;;;10.10;99.90;;;;;;5060134;28;20387;-61
2023/10/17 09:24:45;;;;;;;8.65;2.67;;;10.10;99.90;;;;;;5055345;28;20118;-62
2023/10/17 09:27:14;;;;;;;7.45;2.72;;;10.20;99.90;;;;;;5062542;28;20032;-60
2023/10/17 09:29:47;;;;;;;8.77;3.13;;;10.30;99.90;;;;;;5061371;28;20082;-62
2023/10/17 09:32:31;;;;;;;10.00;2.53;;;10.30;99.90;;;;;;5057254;28;20044;-63
2023/10/17 09:34:59;;;;;;;14.05;3.05;;;10.40;99.90;;;;;;5054308;28;20021;-62
2023/10/17 09:37:27;;;;;;;7.72;3.00;;;10.40;99.90;;;;;;5058893;28;20491;-62
2023/10/17 09:39:54;;;;;;;7.70;2.78;;;10.40;99.90;;;;;;5069347;28;20035;-61
2023/10/17 09:42:20;;;;;;;6.10;2.95;;;10.50;99.90;;;;;;5064172;28;20028;-61
2023/10/17 09:44:45;;;;;;;8.73;2.15;;;10.40;99.90;;;;;;5063958;28;20082;-60
2023/10/17 09:47:14;;;;;;;4.90;2.30;;;10.20;99.90;;;;;;5073302;28;20021;-60
2023/10/17 09:49:48;;;;;;;3.72;2.65;;;10.20;99.90;;;;;;5063208;28;20074;-59
2023/10/17 09:52:15;;;;;;;6.03;2.53;;;10.20;99.90;;;;;;5071469;28;20095;-59
2023/10/17 09:54:41;;;;;;;4.97;2.70;;;10.30;99.90;;;;;;5063580;28;20033;-59
2023/10/17 09:57:14;;;;;;;4.68;2.38;;;10.50;99.90;;;;;;5067095;28;20591;-59
2023/10/17 09:59:51;;;;;;;7.15;2.80;;;10.60;99.90;;;;;;5074979;28;20041;-60
2023/10/17 10:02:20;;;;;;;5.65;2.90;;;10.70;99.90;;;;;;5068705;28;20020;-62
2023/10/17 10:04:46;;;;;;;6.65;2.30;;;10.80;99.90;;;;;;5063824;28;20021;-62
2023/10/17 10:07:26;;;;;;;4.85;1.92;;;11.00;99.90;;;;;;5069994;28;20039;-59
2023/10/17 10:09:52;;;;;;;5.28;2.20;;;10.90;99.90;;;;;;5067390;28;20017;-59
2023/10/17 10:12:17;;;;;;;6.47;1.95;;;10.80;99.90;;;;;;5066141;28;20017;-62
2023/10/17 10:14:43;;;;;;;3.22;2.00;;;10.90;99.90;;;;;;5072957;28;20476;-59
2023/10/17 10:17:16;;;;;;;6.13;2.22;;;10.90;99.90;;;;;;5064671;28;20043;-60
2023/10/17 10:19:41;;;;;;;4.05;1.98;;;10.80;99.90;;;;;;5062816;28;20040;-61
2023/10/17 10:22:12;;;;;;;5.53;2.25;;;10.70;99.90;;;;;;5060372;28;20024;-60
2023/10/17 10:24:39;;;;;;;3.78;2.15;;;10.80;99.90;;;;;;5069479;28;20091;-60
2023/10/17 10:27:26;;;;;;;6.55;2.30;;;10.90;99.90;;;;;;5056681;28;20119;-60
2023/10/17 10:30:32;;;;;;;4.82;2.00;;;11.10;99.90;;;;;;5058666;28;20039;-60
2023/10/17 10:32:58;;;;;;;;;;;11.30;99.90;;;;;;5064253;28;20056;-62
2023/10/17 10:35:24;;;;;;;5.38;2.17;;;11.40;99.90;;;;;;5067238;28;19900;-62
2023/10/17 10:37:53;;;;;;;6.45;2.03;;;11.50;99.90;;;;;;5072869;28;20096;-60
2023/10/17 10:40:23;;;;;;;3.03;1.80;;;11.80;99.90;;;;;;5067642;28;20544;-62
2023/10/17 10:42:50;;;;;;;6.07;2.03;;;12.00;99.90;;;;;;5066179;28;20028;-61
2023/10/17 10:45:26;;;;;;;4.05;1.67;;;12.30;99.90;;;;;;5068272;28;20036;-62
2023/10/17 10:47:57;;;;;;;2.65;1.77;;;12.30;99.90;;;;;;5066522;28;20479;-62
2023/10/17 10:50:25;;;;;;;3.28;1.67;;;12.30;99.90;;;;;;5067361;28;20016;-62
2023/10/17 10:52:50;;;;;;;4.25;2.15;;;12.40;99.90;;;;;;5067110;28;20044;-61
2023/10/17 10:55:17;;;;;;;2.38;1.52;;;12.40;99.90;;;;;;5062338;28;20072;-63
2023/10/17 10:57:43;;;;;;;3.50;1.92;;;12.60;99.90;;;;;;5065865;28;20020;-60
2023/10/17 11:00:09;;;;;;;3.35;1.50;;;12.80;99.90;;;;;;5065102;28;20100;-62
2023/10/17 11:02:36;;;;;;;4.07;1.50;;;13.00;99.90;;;;;;5060365;28;20127;-62
2023/10/17 11:05:04;;;;;;;4.90;1.70;;;13.10;99.90;;;;;;5068252;28;21244;-61
2023/10/17 11:07:33;;;;;;;6.63;1.92;;;13.10;99.90;;;;;;5068065;28;20420;-60
2023/10/17 11:10:04;;;;;;;2.80;1.60;;;13.10;99.90;;;;;;5067003;28;20496;-62
2023/10/17 11:12:29;;;;;;;4.88;1.65;;;13.10;99.90;;;;;;5066292;28;20052;-62
2023/10/17 11:15:16;;;;;;;4.20;1.70;;;13.30;99.90;;;;;;5065327;28;20043;-63
2023/10/17 11:17:42;;;;;;;5.45;1.65;;;13.30;99.90;;;;;;5062904;28;20029;-60
2023/10/17 11:20:18;;;;;;;7.15;1.60;;;13.30;99.90;;;;;;5065167;28;20048;-61
2023/10/17 11:22:46;;;;;;;1.95;1.35;;;13.40;99.90;;;;;;5061480;28;20026;-62
2023/10/17 11:25:13;;;;;;;2.08;1.50;;;13.40;99.90;;;;;;5066619;28;20533;-61
2023/10/17 11:27:53;;;;;;;5.40;1.70;;;13.30;99.90;;;;;;5066554;28;20045;-61
2023/10/17 11:30:20;;;;;;;3.92;1.70;;;13.40;99.90;;;;;;5064169;28;20067;-62
2023/10/17 11:32:46;;;;;;;3.92;1.60;;;13.80;99.90;;;;;;5063122;28;20120;-62
2023/10/17 11:35:29;;;;;;;3.25;1.40;;;14.00;99.90;;;;;;5069453;28;20019;-61
2023/10/17 11:37:58;;;;;;;2.25;1.60;;;14.20;99.90;;;;;;5074743;28;20039;-62
2023/10/17 11:40:45;;;;;;;4.28;1.40;;;;;;;;;;5076954;28;20046;-62
2023/10/17 11:43:16;;;;;;;5.28;1.58;;;;;;;;;;5067066;28;20348;-62
2023/10/17 11:45:42;;;;;;;6.55;1.85;;;;;;;;;;5063001;28;20016;-59
2023/10/17 11:48:26;;;;;;;2.33;1.60;;;;;;;;;;5062209;28;20551;-57
2023/10/17 11:51:05;;;;;;;3.50;1.60;;;;;;;;;;5059438;28;20074;-61
2023/10/17 11:53:34;;;;;;;6.28;1.70;;;15.10;99.90;;;;;;5059212;28;20021;-61
2023/10/17 11:56:01;;;;;;;3.85;1.45;;;15.50;99.90;;;;;;5069371;28;20031;-60
2023/10/17 11:58:30;;;;;;;4.90;1.27;;;15.60;99.90;;;;;;5056738;28;20154;-58
2023/10/17 12:00:56;;;;;;;3.22;1.63;;;15.80;99.90;;;;;;5063934;28;20024;-60
2023/10/17 12:03:24;;;;;;;3.35;1.58;;;15.60;99.90;;;;;;5061305;28;20024;-62
2023/10/17 12:05:49;;;;;;;2.25;1.80;;;15.80;99.90;;;;;;5063197;28;20039;-60
2023/10/17 12:08:21;;;;;;;3.30;1.38;;;15.60;99.90;;;;;;5063363;28;20028;-60
2023/10/17 12:10:49;;;;;;;3.50;1.38;;;16.00;99.90;;;;;;5069038;28;20020;-59
2023/10/17 12:13:17;;;;;;;2.38;1.48;;;16.10;99.90;;;;;;5066451;28;20049;-59
2023/10/17 12:15:44;;;;;;;3.80;1.83;;;15.60;99.90;;;;;;5066020;28;20024;-57
2023/10/17 12:18:10;;;;;;;6.28;1.63;;;15.60;99.90;;;;;;5060108;28;20031;-58
2023/10/17 12:20:40;;;;;;;6.10;1.58;;;15.90;99.90;;;;;;5063292;28;20484;-58
2023/10/17 12:23:12;;;;;;;4.30;1.50;;;16.10;99.90;;;;;;5063351;28;20037;-60
2023/10/17 12:25:42;;;;;;;5.18;1.73;;;16.30;99.90;;;;;;5067185;28;20040;-57
2023/10/17 12:28:08;;;;;;;6.30;1.52;;;16.20;99.90;;;;;;5065767;28;20069;-58
2023/10/17 12:30:38;;;;;;;5.13;1.48;;;16.40;99.90;;;;;;5064889;28;20029;-60
2023/10/17 12:33:05;;;;;;;3.53;1.50;;;16.70;99.90;;;;;;5064324;28;20056;-60
2023/10/17 12:35:30;;;;;;;1.63;1.52;;;16.30;99.90;;;;;;5064552;28;20021;-57
2023/10/17 12:37:59;;;;;;;2.40;1.33;;;16.50;99.90;;;;;;5063958;28;20032;-57
2023/10/17 12:40:26;;;;;;;3.22;1.45;;;16.80;99.90;;;;;;5066099;28;20395;-57
2023/10/17 12:42:55;;;;;;;3.97;1.73;;;16.90;99.90;;;;;;5063448;28;20024;-58
2023/10/17 12:45:21;;;;;;;4.65;1.40;;;16.90;99.90;;;;;;5069945;28;20020;-60
2023/10/17 12:47:47;;;;;;;3.70;1.65;;;16.80;99.90;;;;;;5067052;28;20025;-59
2023/10/17 12:50:18;;;;;;;5.65;1.40;;;16.70;99.90;;;;;;5063579;28;20025;-58
2023/10/17 12:52:43;;;;;;;5.13;1.55;;;16.20;99.90;;;;;;5061030;28;20036;-60
2023/10/17 12:55:11;;;;;;;3.47;1.58;;;16.60;99.90;;;;;;5060442;28;20480;-60
2023/10/17 12:57:38;;;;;;;4.22;1.30;;;16.80;99.90;;;;;;5065414;28;20036;-60
2023/10/17 13:00:14;;;;;;;3.28;1.50;;;16.70;99.90;;;;;;5063729;28;20389;-60
2023/10/17 13:02:41;;;;;;;3.58;1.40;;;16.70;99.90;;;;;;5059915;28;20111;-60
2023/10/17 13:05:10;;;;;;;2.90;1.60;;;16.40;99.90;;;;;;5054263;28;20041;-59
2023/10/17 13:07:40;;;;;;;4.30;1.80;;;16.30;99.90;;;;;;5062580;28;20096;-59
2023/10/17 13:10:07;;;;;;;4.15;2.03;;;16.60;99.90;;;;;;5059548;28;20429;-59
2023/10/17 13:12:33;;;;;;;4.28;1.70;;;16.80;99.90;;;;;;5065466;28;20029;-56
2023/10/17 13:14:59;;;;;;;2.30;1.50;;;16.70;99.90;;;;;;5060556;28;20024;-55
2023/10/17 13:17:25;;;;;;;6.72;1.67;;;16.50;99.90;;;;;;5064324;28;20035;-61
2023/10/17 13:19:52;;;;;;;5.07;1.50;;;16.70;99.90;;;;;;5059108;28;20086;-59
2023/10/17 13:22:21;;;;;;;3.85;1.55;;;16.90;99.90;;;;;;5062117;28;20036;-59
2023/10/17 13:24:50;;;;;;;3.47;1.52;;;16.70;99.90;;;;;;5064279;28;20041;-60
2023/10/17 13:27:16;;;;;;;3.90;1.65;;;16.30;99.90;;;;;;5063773;28;20020;-59
2023/10/17 13:29:42;;;;;;;6.13;1.90;;;16.40;99.90;;;;;;5065907;28;20032;-61
2023/10/17 13:32:08;;;;;;;2.10;1.50;;;16.10;99.90;;;;;;5062484;28;20036;-60
2023/10/17 13:34:37;;;;;;;4.75;1.60;;;16.40;99.90;;;;;;5058441;28;20032;-60
2023/10/17 13:37:07;;;;;;;2.67;1.40;;;16.90;99.90;;;;;;5060149;28;20487;-60
2023/10/17 13:39:33;;;;;;;2.92;1.30;;;17.00;99.90;;;;;;5055433;28;20035;-59
2023/10/17 13:42:02;;;;;;;3.47;1.10;;;16.80;99.90;;;;;;5059358;28;20037;-61
2023/10/17 13:44:28;;;;;;;3.33;1.10;;;16.60;99.90;;;;;;5061456;28;20033;-57
2023/10/17 13:46:54;;;;;;;3.88;1.40;;;16.40;99.30;;;;;;5056590;28;20025;-59
2023/10/17 13:49:20;;;;;;;2.38;1.10;;;16.20;99.90;;;;;;5062345;28;20028;-60
2023/10/17 13:51:46;;;;;;;6.75;2.10;;;16.20;99.90;;;;;;5069279;28;20094;-59
2023/10/17 13:54:13;;;;;;;5.38;1.75;;;16.10;99.60;;;;;;5067613;28;20020;-60
2023/10/17 13:56:40;;;;;;;5.53;1.45;;;16.30;99.90;;;;;;5074878;28;20028;-59
2023/10/17 13:59:09;;;;;;;5.03;1.33;;;16.30;99.90;;;;;;5058273;28;20021;-56
2023/10/17 14:01:41;;;;;;;5.63;1.42;;;16.20;99.90;;;;;;5062513;28;20037;-56
2023/10/17 14:04:09;;;;;;;2.20;1.05;;;15.80;99.90;;;;;;5060373;28;20382;-60
2023/10/17 14:06:38;;;;;;;3.20;1.02;;;15.70;99.90;;;;;;5068204;28;20028;-61
2023/10/17 14:09:04;;;;;;;4.15;1.60;;;15.70;99.90;;;;;;5075111;28;20013;-60
2023/10/17 14:11:30;;;;;;;5.18;2.00;;;15.30;99.90;;;;;;5073315;28;20032;-59
2023/10/17 14:13:55;;;;;;;3.80;1.52;;;15.10;99.90;;;;;;5074969;28;20466;-61
2023/10/17 14:16:22;;;;;;;4.70;1.60;;;14.70;99.90;;;;;;5067643;28;20052;-59
2023/10/17 14:19:03;;;;;;;2.83;1.30;;;14.60;99.90;;;;;;5071107;28;20107;-59
2023/10/17 14:23:57;;;;;;;2.80;1.23;;;14.70;99.90;;;;;;5067790;28;20498;-61
2023/10/17 14:26:30;;;;;;;2.22;1.40;;;14.50;99.90;;;;;;5066960;28;20021;-58
2023/10/17 14:29:03;;;;;;;3.42;1.45;;;14.20;99.90;;;;;;5069892;28;20099;-60
2023/10/17 14:31:30;;;;;;;3.30;1.60;;;14.10;99.90;;;;;;5067981;28;20024;-60
2023/10/17 14:33:59;;;;;;;4.97;1.95;;;14.10;99.90;;;;;;5075034;28;20107;-59
2023/10/17 14:36:27;;;;;;;2.08;1.23;;;14.00;99.90;;;;;;5065777;28;20056;-60
2023/10/17 14:38:53;;;;;;;2.55;1.50;;;14.00;99.90;;;;;;5073645;28;20460;-61
2023/10/17 14:41:18;;;;;;;2.28;1.55;;;13.90;99.90;;;;;;5067622;28;20116;-62
2023/10/17 14:43:46;;;;;;;3.28;1.65;;;14.00;99.90;;;;;;5064023;28;20088;-61
2023/10/17 14:46:12;;;;;;;3.75;1.35;;;14.00;99.90;;;;;;5067263;28;20441;-60
2023/10/17 14:48:40;;;;;;;3.78;1.70;;;14.00;99.90;;;;;;5061152;28;20495;-56
2023/10/17 14:51:06;;;;;;;5.75;2.55;;;14.00;99.90;;;;;;5058414;28;20035;-61
2023/10/17 14:53:31;;;;;;;7.05;2.72;;;13.90;99.90;;;;;;5061177;28;20029;-62
2023/10/17 14:55:58;;;;;;;5.13;2.08;;;13.90;99.90;;;;;;5057171;28;20391;-59
2023/10/17 14:58:24;;;;;;;1.67;1.15;;;14.00;99.90;;;;;;5061551;28;20021;-62
2023/10/17 15:00:52;;;;;;;5.57;1.33;;;14.00;99.90;;;;;;5063710;28;20099;-62
2023/10/17 15:03:19;;;;;;;3.95;1.50;;;14.00;99.90;;;;;;5058092;28;20306;-61